Saint Clement, Missouri
Current Conditions -  °F | °C
As of 8:35 PM on Tuesday 21 Oct 2014 (Local Time) from KPPQ Reporting Station
Haze Haze  
Wind Chill: 11°   Ceiling: Unl
Heat Index: 11°   Visibility: 5mi
Dew Point:   Wind: 3mph
Humidity: 66%   Direction: 60°ENE
Pressure: 30.19"   Gusts: NA
Location:  39.321°N, 91.1912°W
Report Text: KPPQ 220135Z AUTO 06003KT 5SM HZ CLR 11/05 A3019 RMK AO2 T01090048
Loading
Personal Weather Stations






























Interactive Weather Map
Tropical Storm Tracking
New forecast layout! Learn more

10-Day Weather Forecast

Advertisements
Track Severe Weather on mobile